sensor_id;sensor_type;location;lat;lon;timestamp;P1;durP1;ratioP1;P2;durP2;ratioP2
24153;SDS011;12312;53.362;-1.518;2023-04-03T00:00:26;14.52;;;3.70;;
24153;SDS011;12312;53.362;-1.518;2023-04-03T00:03:10;15.63;;;3.95;;
24153;SDS011;12312;53.362;-1.518;2023-04-03T00:05:54;11.90;;;3.63;;
24153;SDS011;12312;53.362;-1.518;2023-04-03T00:08:39;13.52;;;3.80;;
24153;SDS011;12312;53.362;-1.518;2023-04-03T00:11:24;9.93;;;3.28;;
24153;SDS011;12312;53.362;-1.518;2023-04-03T00:14:09;8.85;;;3.80;;
24153;SDS011;12312;53.362;-1.518;2023-04-03T00:16:53;13.02;;;3.90;;
24153;SDS011;12312;53.362;-1.518;2023-04-03T00:19:37;11.48;;;3.78;;
24153;SDS011;12312;53.362;-1.518;2023-04-03T00:22:21;15.20;;;3.70;;
24153;SDS011;12312;53.362;-1.518;2023-04-03T00:25:05;13.98;;;3.80;;
24153;SDS011;12312;53.362;-1.518;2023-04-03T00:27:49;11.70;;;4.22;;
24153;SDS011;12312;53.362;-1.518;2023-04-03T00:30:33;13.65;;;4.03;;
24153;SDS011;12312;53.362;-1.518;2023-04-03T00:33:18;12.35;;;3.80;;
24153;SDS011;12312;53.362;-1.518;2023-04-03T00:36:06;9.90;;;3.88;;
24153;SDS011;12312;53.362;-1.518;2023-04-03T00:38:51;10.88;;;3.88;;
24153;SDS011;12312;53.362;-1.518;2023-04-03T00:41:35;12.07;;;3.95;;
24153;SDS011;12312;53.362;-1.518;2023-04-03T00:47:06;11.77;;;4.22;;
24153;SDS011;12312;53.362;-1.518;2023-04-03T00:49:52;11.45;;;3.78;;
24153;SDS011;12312;53.362;-1.518;2023-04-03T00:52:37;11.90;;;4.65;;
24153;SDS011;12312;53.362;-1.518;2023-04-03T00:55:22;11.53;;;4.17;;
24153;SDS011;12312;53.362;-1.518;2023-04-03T00:58:07;13.18;;;4.32;;
24153;SDS011;12312;53.362;-1.518;2023-04-03T01:00:53;8.63;;;3.83;;
24153;SDS011;12312;53.362;-1.518;2023-04-03T01:03:41;16.70;;;5.90;;
24153;SDS011;12312;53.362;-1.518;2023-04-03T01:06:28;13.13;;;5.00;;
24153;SDS011;12312;53.362;-1.518;2023-04-03T01:09:17;16.02;;;4.57;;
24153;SDS011;12312;53.362;-1.518;2023-04-03T01:17:53;11.52;;;4.25;;
24153;SDS011;12312;53.362;-1.518;2023-04-03T01:20:50;11.80;;;4.00;;
24153;SDS011;12312;53.362;-1.518;2023-04-03T01:26:29;9.07;;;3.70;;
24153;SDS011;12312;53.362;-1.518;2023-04-03T01:29:13;10.82;;;4.47;;
24153;SDS011;12312;53.362;-1.518;2023-04-03T01:31:59;9.48;;;4.18;;
24153;SDS011;12312;53.362;-1.518;2023-04-03T01:34:44;12.05;;;4.13;;
24153;SDS011;12312;53.362;-1.518;2023-04-03T01:37:28;11.70;;;3.97;;
24153;SDS011;12312;53.362;-1.518;2023-04-03T01:40:12;10.27;;;3.88;;
24153;SDS011;12312;53.362;-1.518;2023-04-03T01:42:56;16.63;;;3.97;;
24153;SDS011;12312;53.362;-1.518;2023-04-03T01:45:40;11.25;;;3.65;;
24153;SDS011;12312;53.362;-1.518;2023-04-03T01:48:25;7.65;;;3.80;;
24153;SDS011;12312;53.362;-1.518;2023-04-03T01:51:09;15.38;;;4.32;;
24153;SDS011;12312;53.362;-1.518;2023-04-03T01:53:53;10.40;;;3.67;;
24153;SDS011;12312;53.362;-1.518;2023-04-03T01:56:37;15.73;;;4.43;;
24153;SDS011;12312;53.362;-1.518;2023-04-03T01:59:22;15.35;;;4.63;;
24153;SDS011;12312;53.362;-1.518;2023-04-03T02:02:06;12.30;;;4.63;;
24153;SDS011;12312;53.362;-1.518;2023-04-03T02:08:31;12.52;;;4.15;;
24153;SDS011;12312;53.362;-1.518;2023-04-03T02:11:15;16.13;;;4.30;;
24153;SDS011;12312;53.362;-1.518;2023-04-03T02:14:00;10.43;;;4.30;;
24153;SDS011;12312;53.362;-1.518;2023-04-03T02:16:44;12.70;;;4.72;;
24153;SDS011;12312;53.362;-1.518;2023-04-03T02:19:29;10.98;;;4.20;;
24153;SDS011;12312;53.362;-1.518;2023-04-03T02:22:14;12.55;;;4.55;;
24153;SDS011;12312;53.362;-1.518;2023-04-03T02:24:59;14.25;;;4.45;;
24153;SDS011;12312;53.362;-1.518;2023-04-03T02:27:43;13.07;;;3.85;;
24153;SDS011;12312;53.362;-1.518;2023-04-03T02:30:27;11.55;;;3.47;;
24153;SDS011;12312;53.362;-1.518;2023-04-03T02:33:11;7.97;;;3.30;;
24153;SDS011;12312;53.362;-1.518;2023-04-03T02:35:55;11.85;;;2.97;;
24153;SDS011;12312;53.362;-1.518;2023-04-03T02:38:40;7.50;;;2.92;;
24153;SDS011;12312;53.362;-1.518;2023-04-03T02:41:23;8.93;;;2.90;;
24153;SDS011;12312;53.362;-1.518;2023-04-03T02:44:11;7.22;;;3.38;;
24153;SDS011;12312;53.362;-1.518;2023-04-03T02:46:56;9.32;;;3.28;;
24153;SDS011;12312;53.362;-1.518;2023-04-03T02:49:40;9.45;;;3.30;;
24153;SDS011;12312;53.362;-1.518;2023-04-03T02:52:24;10.98;;;3.03;;
24153;SDS011;12312;53.362;-1.518;2023-04-03T02:55:09;9.48;;;3.40;;
24153;SDS011;12312;53.362;-1.518;2023-04-03T02:57:59;11.18;;;3.05;;
24153;SDS011;12312;53.362;-1.518;2023-04-03T03:00:43;7.07;;;2.90;;
24153;SDS011;12312;53.362;-1.518;2023-04-03T03:03:27;7.68;;;3.10;;
24153;SDS011;12312;53.362;-1.518;2023-04-03T03:06:12;13.13;;;3.33;;
24153;SDS011;12312;53.362;-1.518;2023-04-03T03:08:58;14.55;;;3.45;;
24153;SDS011;12312;53.362;-1.518;2023-04-03T03:11:43;9.90;;;3.22;;
24153;SDS011;12312;53.362;-1.518;2023-04-03T03:14:27;13.57;;;4.10;;
24153;SDS011;12312;53.362;-1.518;2023-04-03T03:17:11;15.07;;;3.90;;
24153;SDS011;12312;53.362;-1.518;2023-04-03T03:19:55;10.88;;;3.53;;
24153;SDS011;12312;53.362;-1.518;2023-04-03T03:22:39;11.93;;;3.65;;
24153;SDS011;12312;53.362;-1.518;2023-04-03T03:25:23;14.18;;;3.85;;
24153;SDS011;12312;53.362;-1.518;2023-04-03T03:28:08;12.02;;;3.78;;
24153;SDS011;12312;53.362;-1.518;2023-04-03T03:30:52;9.30;;;3.53;;
24153;SDS011;12312;53.362;-1.518;2023-04-03T03:33:36;12.80;;;4.10;;
24153;SDS011;12312;53.362;-1.518;2023-04-03T03:36:21;9.45;;;3.50;;
24153;SDS011;12312;53.362;-1.518;2023-04-03T03:39:05;9.82;;;3.20;;
24153;SDS011;12312;53.362;-1.518;2023-04-03T03:41:48;11.45;;;3.40;;
24153;SDS011;12312;53.362;-1.518;2023-04-03T03:44:33;10.38;;;3.85;;
24153;SDS011;12312;53.362;-1.518;2023-04-03T03:47:17;10.55;;;4.38;;
24153;SDS011;12312;53.362;-1.518;2023-04-03T03:50:01;9.75;;;3.90;;
24153;SDS011;12312;53.362;-1.518;2023-04-03T03:52:45;8.00;;;3.47;;
24153;SDS011;12312;53.362;-1.518;2023-04-03T03:55:30;10.10;;;4.28;;
24153;SDS011;12312;53.362;-1.518;2023-04-03T03:58:14;8.43;;;3.67;;
24153;SDS011;12312;53.362;-1.518;2023-04-03T04:01:02;13.65;;;4.45;;
24153;SDS011;12312;53.362;-1.518;2023-04-03T04:03:47;7.10;;;3.50;;
24153;SDS011;12312;53.362;-1.518;2023-04-03T04:06:32;9.98;;;4.38;;
24153;SDS011;12312;53.362;-1.518;2023-04-03T04:09:15;6.72;;;4.15;;
24153;SDS011;12312;53.362;-1.518;2023-04-03T04:11:59;11.05;;;3.67;;
24153;SDS011;12312;53.362;-1.518;2023-04-03T04:14:43;10.30;;;4.47;;
24153;SDS011;12312;53.362;-1.518;2023-04-03T04:17:30;9.13;;;3.47;;
24153;SDS011;12312;53.362;-1.518;2023-04-03T04:20:14;9.88;;;3.85;;
24153;SDS011;12312;53.362;-1.518;2023-04-03T04:22:59;13.63;;;3.65;;
24153;SDS011;12312;53.362;-1.518;2023-04-03T04:25:46;10.20;;;3.78;;
24153;SDS011;12312;53.362;-1.518;2023-04-03T04:28:31;9.18;;;4.03;;
24153;SDS011;12312;53.362;-1.518;2023-04-03T04:31:15;8.82;;;3.78;;
24153;SDS011;12312;53.362;-1.518;2023-04-03T04:33:59;11.82;;;3.78;;
24153;SDS011;12312;53.362;-1.518;2023-04-03T04:36:43;6.93;;;3.17;;
24153;SDS011;12312;53.362;-1.518;2023-04-03T04:39:27;8.75;;;3.22;;
24153;SDS011;12312;53.362;-1.518;2023-04-03T04:42:11;19.30;;;3.80;;
24153;SDS011;12312;53.362;-1.518;2023-04-03T04:44:56;10.77;;;3.50;;
24153;SDS011;12312;53.362;-1.518;2023-04-03T04:47:40;12.50;;;2.97;;
24153;SDS011;12312;53.362;-1.518;2023-04-03T04:50:25;11.77;;;3.40;;
24153;SDS011;12312;53.362;-1.518;2023-04-03T04:53:09;8.20;;;3.53;;
24153;SDS011;12312;53.362;-1.518;2023-04-03T04:55:53;12.13;;;3.45;;
24153;SDS011;12312;53.362;-1.518;2023-04-03T04:58:37;5.72;;;3.15;;
24153;SDS011;12312;53.362;-1.518;2023-04-03T05:01:21;14.93;;;4.40;;
24153;SDS011;12312;53.362;-1.518;2023-04-03T05:04:05;7.30;;;3.63;;
24153;SDS011;12312;53.362;-1.518;2023-04-03T05:06:49;7.28;;;3.47;;
24153;SDS011;12312;53.362;-1.518;2023-04-03T05:09:33;11.32;;;4.43;;
24153;SDS011;12312;53.362;-1.518;2023-04-03T05:12:18;13.07;;;3.75;;
24153;SDS011;12312;53.362;-1.518;2023-04-03T05:15:02;10.77;;;4.10;;
24153;SDS011;12312;53.362;-1.518;2023-04-03T05:17:46;10.95;;;4.20;;
24153;SDS011;12312;53.362;-1.518;2023-04-03T05:20:31;10.20;;;3.97;;
24153;SDS011;12312;53.362;-1.518;2023-04-03T05:23:16;12.40;;;4.43;;
24153;SDS011;12312;53.362;-1.518;2023-04-03T05:26:00;12.05;;;4.30;;
24153;SDS011;12312;53.362;-1.518;2023-04-03T05:28:44;9.23;;;4.65;;
24153;SDS011;12312;53.362;-1.518;2023-04-03T05:31:28;14.07;;;5.90;;
24153;SDS011;12312;53.362;-1.518;2023-04-03T05:34:13;10.95;;;4.57;;
24153;SDS011;12312;53.362;-1.518;2023-04-03T05:36:57;10.73;;;4.38;;
24153;SDS011;12312;53.362;-1.518;2023-04-03T05:39:41;9.63;;;4.20;;
24153;SDS011;12312;53.362;-1.518;2023-04-03T05:42:25;14.30;;;5.30;;
24153;SDS011;12312;53.362;-1.518;2023-04-03T05:45:10;11.80;;;4.72;;
24153;SDS011;12312;53.362;-1.518;2023-04-03T05:47:54;11.18;;;3.85;;
24153;SDS011;12312;53.362;-1.518;2023-04-03T05:50:38;14.52;;;4.00;;
24153;SDS011;12312;53.362;-1.518;2023-04-03T05:53:27;8.93;;;3.95;;
24153;SDS011;12312;53.362;-1.518;2023-04-03T05:56:13;10.95;;;4.22;;
24153;SDS011;12312;53.362;-1.518;2023-04-03T05:58:57;8.68;;;3.38;;
24153;SDS011;12312;53.362;-1.518;2023-04-03T06:01:41;9.57;;;3.83;;
24153;SDS011;12312;53.362;-1.518;2023-04-03T06:04:25;9.82;;;3.55;;
24153;SDS011;12312;53.362;-1.518;2023-04-03T06:07:13;11.35;;;4.00;;
24153;SDS011;12312;53.362;-1.518;2023-04-03T06:10:04;10.98;;;4.35;;
24153;SDS011;12312;53.362;-1.518;2023-04-03T06:15:35;9.32;;;4.13;;
24153;SDS011;12312;53.362;-1.518;2023-04-03T06:18:20;13.68;;;4.78;;
24153;SDS011;12312;53.362;-1.518;2023-04-03T06:21:04;9.55;;;4.10;;
24153;SDS011;12312;53.362;-1.518;2023-04-03T06:23:49;9.65;;;3.90;;
24153;SDS011;12312;53.362;-1.518;2023-04-03T06:26:33;9.43;;;3.67;;
24153;SDS011;12312;53.362;-1.518;2023-04-03T06:29:18;10.70;;;3.78;;
24153;SDS011;12312;53.362;-1.518;2023-04-03T06:32:03;9.75;;;4.18;;
24153;SDS011;12312;53.362;-1.518;2023-04-03T06:34:47;11.38;;;4.20;;
24153;SDS011;12312;53.362;-1.518;2023-04-03T06:37:31;10.15;;;3.83;;
24153;SDS011;12312;53.362;-1.518;2023-04-03T06:40:18;11.10;;;4.22;;
24153;SDS011;12312;53.362;-1.518;2023-04-03T06:43:05;11.30;;;3.13;;
24153;SDS011;12312;53.362;-1.518;2023-04-03T06:45:50;12.33;;;4.37;;
24153;SDS011;12312;53.362;-1.518;2023-04-03T06:48:34;16.35;;;3.80;;
24153;SDS011;12312;53.362;-1.518;2023-04-03T06:51:24;10.57;;;4.15;;
24153;SDS011;12312;53.362;-1.518;2023-04-03T06:54:10;15.55;;;4.30;;
24153;SDS011;12312;53.362;-1.518;2023-04-03T06:56:54;16.20;;;3.95;;
24153;SDS011;12312;53.362;-1.518;2023-04-03T06:59:38;14.23;;;3.78;;
24153;SDS011;12312;53.362;-1.518;2023-04-03T07:02:22;10.10;;;3.50;;
24153;SDS011;12312;53.362;-1.518;2023-04-03T07:05:06;15.48;;;3.90;;
24153;SDS011;12312;53.362;-1.518;2023-04-03T07:07:51;15.43;;;4.00;;
24153;SDS011;12312;53.362;-1.518;2023-04-03T07:10:37;15.60;;;4.68;;
24153;SDS011;12312;53.362;-1.518;2023-04-03T07:13:21;12.05;;;3.70;;
24153;SDS011;12312;53.362;-1.518;2023-04-03T07:16:06;14.52;;;4.10;;
24153;SDS011;12312;53.362;-1.518;2023-04-03T07:18:50;12.25;;;4.72;;
24153;SDS011;12312;53.362;-1.518;2023-04-03T07:21:34;13.10;;;3.03;;
24153;SDS011;12312;53.362;-1.518;2023-04-03T07:24:19;17.33;;;4.80;;
24153;SDS011;12312;53.362;-1.518;2023-04-03T07:27:02;10.27;;;3.55;;
24153;SDS011;12312;53.362;-1.518;2023-04-03T07:29:46;11.68;;;3.83;;
24153;SDS011;12312;53.362;-1.518;2023-04-03T07:32:32;14.13;;;4.45;;
24153;SDS011;12312;53.362;-1.518;2023-04-03T07:35:16;11.95;;;3.28;;
24153;SDS011;12312;53.362;-1.518;2023-04-03T07:38:01;13.55;;;2.72;;
24153;SDS011;12312;53.362;-1.518;2023-04-03T07:40:48;9.52;;;3.60;;
24153;SDS011;12312;53.362;-1.518;2023-04-03T07:43:34;9.48;;;2.70;;
24153;SDS011;12312;53.362;-1.518;2023-04-03T07:46:18;8.35;;;2.85;;
24153;SDS011;12312;53.362;-1.518;2023-04-03T07:49:02;10.00;;;3.00;;
24153;SDS011;12312;53.362;-1.518;2023-04-03T07:51:46;10.32;;;2.80;;
24153;SDS011;12312;53.362;-1.518;2023-04-03T07:54:32;9.82;;;3.05;;
24153;SDS011;12312;53.362;-1.518;2023-04-03T07:57:16;11.27;;;2.55;;
24153;SDS011;12312;53.362;-1.518;2023-04-03T08:00:00;10.20;;;2.70;;
24153;SDS011;12312;53.362;-1.518;2023-04-03T08:02:45;6.85;;;2.50;;
24153;SDS011;12312;53.362;-1.518;2023-04-03T08:05:37;9.25;;;2.90;;
24153;SDS011;12312;53.362;-1.518;2023-04-03T08:08:25;9.48;;;2.72;;
24153;SDS011;12312;53.362;-1.518;2023-04-03T08:11:10;15.13;;;3.22;;
24153;SDS011;12312;53.362;-1.518;2023-04-03T08:13:55;9.07;;;2.33;;
24153;SDS011;12312;53.362;-1.518;2023-04-03T08:16:39;8.45;;;3.08;;
24153;SDS011;12312;53.362;-1.518;2023-04-03T08:19:23;6.07;;;2.70;;
24153;SDS011;12312;53.362;-1.518;2023-04-03T08:22:08;9.18;;;3.45;;
24153;SDS011;12312;53.362;-1.518;2023-04-03T08:24:52;12.82;;;3.00;;
24153;SDS011;12312;53.362;-1.518;2023-04-03T08:27:36;9.32;;;2.53;;
24153;SDS011;12312;53.362;-1.518;2023-04-03T08:30:20;13.75;;;2.63;;
24153;SDS011;12312;53.362;-1.518;2023-04-03T08:33:05;13.15;;;2.08;;
24153;SDS011;12312;53.362;-1.518;2023-04-03T08:35:49;10.85;;;2.40;;
24153;SDS011;12312;53.362;-1.518;2023-04-03T08:38:34;7.07;;;1.95;;
24153;SDS011;12312;53.362;-1.518;2023-04-03T08:47:23;8.07;;;1.92;;
24153;SDS011;12312;53.362;-1.518;2023-04-03T08:50:13;6.43;;;1.65;;
24153;SDS011;12312;53.362;-1.518;2023-04-03T08:53:04;7.22;;;1.98;;
24153;SDS011;12312;53.362;-1.518;2023-04-03T08:55:54;10.18;;;2.00;;
24153;SDS011;12312;53.362;-1.518;2023-04-03T08:58:44;9.80;;;1.75;;
24153;SDS011;12312;53.362;-1.518;2023-04-03T09:01:36;5.97;;;2.00;;
24153;SDS011;12312;53.362;-1.518;2023-04-03T09:04:31;6.05;;;1.70;;
24153;SDS011;12312;53.362;-1.518;2023-04-03T09:07:19;5.22;;;1.75;;
24153;SDS011;12312;53.362;-1.518;2023-04-03T09:10:10;3.88;;;1.90;;
24153;SDS011;12312;53.362;-1.518;2023-04-03T09:13:01;5.57;;;2.00;;
24153;SDS011;12312;53.362;-1.518;2023-04-03T09:15:50;4.93;;;1.60;;
24153;SDS011;12312;53.362;-1.518;2023-04-03T09:18:39;6.78;;;1.98;;
24153;SDS011;12312;53.362;-1.518;2023-04-03T09:21:34;10.10;;;1.90;;
24153;SDS011;12312;53.362;-1.518;2023-04-03T09:24:22;7.15;;;1.50;;
24153;SDS011;12312;53.362;-1.518;2023-04-03T09:27:09;8.25;;;1.88;;
24153;SDS011;12312;53.362;-1.518;2023-04-03T09:29:55;8.13;;;2.30;;
24153;SDS011;12312;53.362;-1.518;2023-04-03T09:32:41;5.47;;;1.90;;
24153;SDS011;12312;53.362;-1.518;2023-04-03T09:35:37;4.38;;;2.10;;
24153;SDS011;12312;53.362;-1.518;2023-04-03T09:38:24;9.35;;;2.28;;
24153;SDS011;12312;53.362;-1.518;2023-04-03T09:41:16;13.07;;;2.20;;
24153;SDS011;12312;53.362;-1.518;2023-04-03T09:44:02;13.05;;;2.00;;
24153;SDS011;12312;53.362;-1.518;2023-04-03T09:46:46;6.28;;;2.10;;
24153;SDS011;12312;53.362;-1.518;2023-04-03T09:49:31;9.88;;;2.17;;
24153;SDS011;12312;53.362;-1.518;2023-04-03T09:52:19;9.00;;;2.08;;
24153;SDS011;12312;53.362;-1.518;2023-04-03T09:58:05;6.45;;;1.58;;
24153;SDS011;12312;53.362;-1.518;2023-04-03T10:01:56;6.97;;;1.80;;
24153;SDS011;12312;53.362;-1.518;2023-04-03T10:04:19;9.95;;;2.50;;
24153;SDS011;12312;53.362;-1.518;2023-04-03T10:07:25;10.55;;;2.53;;
24153;SDS011;12312;53.362;-1.518;2023-04-03T10:10:17;13.30;;;2.40;;
24153;SDS011;12312;53.362;-1.518;2023-04-03T10:13:04;3.85;;;1.80;;
24153;SDS011;12312;53.362;-1.518;2023-04-03T10:19:02;6.13;;;2.00;;
24153;SDS011;12312;53.362;-1.518;2023-04-03T10:21:57;10.02;;;2.58;;
24153;SDS011;12312;53.362;-1.518;2023-04-03T10:24:59;7.10;;;2.38;;
24153;SDS011;12312;53.362;-1.518;2023-04-03T10:28:01;7.85;;;1.85;;
24153;SDS011;12312;53.362;-1.518;2023-04-03T10:31:01;8.43;;;2.20;;
24153;SDS011;12312;53.362;-1.518;2023-04-03T10:36:59;7.40;;;2.22;;
24153;SDS011;12312;53.362;-1.518;2023-04-03T10:42:46;9.55;;;2.10;;
24153;SDS011;12312;53.362;-1.518;2023-04-03T10:45:49;13.02;;;2.42;;
24153;SDS011;12312;53.362;-1.518;2023-04-03T10:52:14;8.77;;;2.53;;
24153;SDS011;12312;53.362;-1.518;2023-04-03T10:57:35;14.05;;;2.70;;
24153;SDS011;12312;53.362;-1.518;2023-04-03T11:00:21;10.02;;;2.40;;
24153;SDS011;12312;53.362;-1.518;2023-04-03T11:03:11;8.00;;;2.45;;
24153;SDS011;12312;53.362;-1.518;2023-04-03T11:06:01;11.48;;;2.60;;
24153;SDS011;12312;53.362;-1.518;2023-04-03T11:12:04;7.40;;;2.40;;
24153;SDS011;12312;53.362;-1.518;2023-04-03T11:14:54;9.48;;;2.78;;
24153;SDS011;12312;53.362;-1.518;2023-04-03T11:17:42;7.22;;;2.20;;
24153;SDS011;12312;53.362;-1.518;2023-04-03T11:20:30;13.95;;;2.78;;
24153;SDS011;12312;53.362;-1.518;2023-04-03T11:23:31;9.68;;;2.55;;
24153;SDS011;12312;53.362;-1.518;2023-04-03T11:26:22;9.20;;;2.20;;
24153;SDS011;12312;53.362;-1.518;2023-04-03T11:29:13;5.82;;;2.58;;
24153;SDS011;12312;53.362;-1.518;2023-04-03T11:35:02;9.80;;;2.47;;
24153;SDS011;12312;53.362;-1.518;2023-04-03T11:37:51;9.45;;;2.17;;
24153;SDS011;12312;53.362;-1.518;2023-04-03T11:40:36;7.78;;;2.50;;
24153;SDS011;12312;53.362;-1.518;2023-04-03T11:46:09;8.98;;;2.40;;
24153;SDS011;12312;53.362;-1.518;2023-04-03T11:48:54;9.48;;;2.47;;
24153;SDS011;12312;53.362;-1.518;2023-04-03T11:51:40;7.57;;;2.35;;
24153;SDS011;12312;53.362;-1.518;2023-04-03T11:54:36;8.15;;;2.42;;
24153;SDS011;12312;53.362;-1.518;2023-04-03T12:09:23;6.25;;;2.25;;
24153;SDS011;12312;53.362;-1.518;2023-04-03T12:12:22;4.57;;;1.75;;
24153;SDS011;12312;53.362;-1.518;2023-04-03T12:24:36;7.50;;;2.63;;
24153;SDS011;12312;53.362;-1.518;2023-04-03T12:30:22;5.53;;;1.60;;
24153;SDS011;12312;53.362;-1.518;2023-04-03T12:33:27;8.57;;;2.00;;
24153;SDS011;12312;53.362;-1.518;2023-04-03T12:36:22;10.88;;;2.40;;
24153;SDS011;12312;53.362;-1.518;2023-04-03T12:39:36;7.13;;;1.92;;
24153;SDS011;12312;53.362;-1.518;2023-04-03T12:42:32;7.80;;;2.20;;
24153;SDS011;12312;53.362;-1.518;2023-04-03T12:45:37;8.27;;;2.28;;
24153;SDS011;12312;53.362;-1.518;2023-04-03T12:48:25;9.25;;;2.58;;
24153;SDS011;12312;53.362;-1.518;2023-04-03T12:51:18;10.15;;;2.83;;
24153;SDS011;12312;53.362;-1.518;2023-04-03T12:54:16;10.75;;;2.38;;
24153;SDS011;12312;53.362;-1.518;2023-04-03T12:57:17;9.48;;;2.33;;
24153;SDS011;12312;53.362;-1.518;2023-04-03T13:00:18;10.10;;;2.67;;
24153;SDS011;12312;53.362;-1.518;2023-04-03T13:03:03;9.50;;;2.35;;
24153;SDS011;12312;53.362;-1.518;2023-04-03T13:05:49;8.02;;;2.67;;
24153;SDS011;12312;53.362;-1.518;2023-04-03T13:08:34;10.20;;;2.20;;
24153;SDS011;12312;53.362;-1.518;2023-04-03T13:11:18;10.20;;;2.42;;
24153;SDS011;12312;53.362;-1.518;2023-04-03T13:14:12;6.68;;;3.22;;
24153;SDS011;12312;53.362;-1.518;2023-04-03T13:17:03;6.45;;;2.40;;
24153;SDS011;12312;53.362;-1.518;2023-04-03T13:22:56;11.50;;;2.60;;
24153;SDS011;12312;53.362;-1.518;2023-04-03T13:25:42;7.10;;;3.20;;
24153;SDS011;12312;53.362;-1.518;2023-04-03T13:28:29;8.13;;;2.20;;
24153;SDS011;12312;53.362;-1.518;2023-04-03T13:31:22;10.27;;;3.13;;
24153;SDS011;12312;53.362;-1.518;2023-04-03T13:36:55;9.52;;;3.25;;
24153;SDS011;12312;53.362;-1.518;2023-04-03T13:39:41;7.65;;;2.95;;
24153;SDS011;12312;53.362;-1.518;2023-04-03T13:42:26;14.40;;;3.60;;
24153;SDS011;12312;53.362;-1.518;2023-04-03T13:45:25;8.00;;;3.40;;
24153;SDS011;12312;53.362;-1.518;2023-04-03T13:48:18;12.88;;;3.53;;
24153;SDS011;12312;53.362;-1.518;2023-04-03T13:51:17;7.50;;;2.92;;
24153;SDS011;12312;53.362;-1.518;2023-04-03T13:54:34;7.70;;;3.30;;
24153;SDS011;12312;53.362;-1.518;2023-04-03T13:57:20;10.18;;;3.25;;
24153;SDS011;12312;53.362;-1.518;2023-04-03T14:06:49;6.78;;;2.60;;
24153;SDS011;12312;53.362;-1.518;2023-04-03T14:09:34;10.63;;;3.42;;
24153;SDS011;12312;53.362;-1.518;2023-04-03T14:12:25;8.95;;;3.55;;
24153;SDS011;12312;53.362;-1.518;2023-04-03T14:15:26;15.95;;;3.88;;
24153;SDS011;12312;53.362;-1.518;2023-04-03T14:18:12;13.77;;;3.63;;
24153;SDS011;12312;53.362;-1.518;2023-04-03T14:20:57;8.68;;;2.95;;
24153;SDS011;12312;53.362;-1.518;2023-04-03T14:23:41;9.23;;;3.63;;
24153;SDS011;12312;53.362;-1.518;2023-04-03T14:26:25;6.18;;;3.15;;
24153;SDS011;12312;53.362;-1.518;2023-04-03T14:29:13;9.00;;;3.63;;
24153;SDS011;12312;53.362;-1.518;2023-04-03T14:31:58;8.73;;;3.17;;
24153;SDS011;12312;53.362;-1.518;2023-04-03T14:34:42;10.30;;;3.55;;
24153;SDS011;12312;53.362;-1.518;2023-04-03T14:37:28;12.35;;;3.90;;
24153;SDS011;12312;53.362;-1.518;2023-04-03T14:40:16;10.30;;;4.55;;
24153;SDS011;12312;53.362;-1.518;2023-04-03T14:43:09;11.00;;;3.10;;
24153;SDS011;12312;53.362;-1.518;2023-04-03T14:45:53;9.02;;;3.05;;
24153;SDS011;12312;53.362;-1.518;2023-04-03T14:48:38;9.48;;;3.45;;
24153;SDS011;12312;53.362;-1.518;2023-04-03T14:51:22;9.05;;;3.65;;
24153;SDS011;12312;53.362;-1.518;2023-04-03T14:54:10;8.65;;;3.22;;
24153;SDS011;12312;53.362;-1.518;2023-04-03T14:56:58;9.45;;;3.03;;
24153;SDS011;12312;53.362;-1.518;2023-04-03T14:59:43;5.85;;;3.13;;
24153;SDS011;12312;53.362;-1.518;2023-04-03T15:02:35;9.82;;;2.92;;
24153;SDS011;12312;53.362;-1.518;2023-04-03T15:05:21;5.78;;;3.35;;
24153;SDS011;12312;53.362;-1.518;2023-04-03T15:08:08;8.95;;;2.88;;
24153;SDS011;12312;53.362;-1.518;2023-04-03T15:11:02;10.93;;;3.38;;
24153;SDS011;12312;53.362;-1.518;2023-04-03T15:13:47;7.10;;;3.05;;
24153;SDS011;12312;53.362;-1.518;2023-04-03T15:16:31;8.77;;;2.63;;
24153;SDS011;12312;53.362;-1.518;2023-04-03T15:19:15;7.35;;;2.92;;
24153;SDS011;12312;53.362;-1.518;2023-04-03T15:21:59;6.68;;;2.85;;
24153;SDS011;12312;53.362;-1.518;2023-04-03T15:24:43;8.63;;;3.03;;
24153;SDS011;12312;53.362;-1.518;2023-04-03T15:27:28;7.78;;;3.20;;
24153;SDS011;12312;53.362;-1.518;2023-04-03T15:30:16;7.50;;;2.80;;
24153;SDS011;12312;53.362;-1.518;2023-04-03T15:33:01;7.40;;;3.55;;
24153;SDS011;12312;53.362;-1.518;2023-04-03T15:35:46;8.48;;;3.40;;
24153;SDS011;12312;53.362;-1.518;2023-04-03T15:38:29;8.45;;;2.70;;
24153;SDS011;12312;53.362;-1.518;2023-04-03T15:41:15;8.20;;;3.47;;
24153;SDS011;12312;53.362;-1.518;2023-04-03T15:43:59;6.15;;;3.15;;
24153;SDS011;12312;53.362;-1.518;2023-04-03T15:46:44;8.77;;;3.33;;
24153;SDS011;12312;53.362;-1.518;2023-04-03T15:49:29;8.15;;;3.50;;
24153;SDS011;12312;53.362;-1.518;2023-04-03T15:52:14;7.50;;;3.22;;
24153;SDS011;12312;53.362;-1.518;2023-04-03T15:54:58;7.03;;;2.70;;
24153;SDS011;12312;53.362;-1.518;2023-04-03T15:57:42;9.05;;;3.47;;
24153;SDS011;12312;53.362;-1.518;2023-04-03T16:00:26;14.45;;;4.80;;
24153;SDS011;12312;53.362;-1.518;2023-04-03T16:03:11;7.22;;;4.03;;
24153;SDS011;12312;53.362;-1.518;2023-04-03T16:06:00;7.97;;;4.45;;
24153;SDS011;12312;53.362;-1.518;2023-04-03T16:08:45;7.63;;;3.45;;
24153;SDS011;12312;53.362;-1.518;2023-04-03T16:11:31;9.48;;;3.47;;
24153;SDS011;12312;53.362;-1.518;2023-04-03T16:14:15;9.93;;;3.63;;
24153;SDS011;12312;53.362;-1.518;2023-04-03T16:16:59;12.52;;;4.00;;
24153;SDS011;12312;53.362;-1.518;2023-04-03T16:19:43;9.95;;;4.10;;
24153;SDS011;12312;53.362;-1.518;2023-04-03T16:22:28;9.88;;;3.75;;
24153;SDS011;12312;53.362;-1.518;2023-04-03T16:25:13;8.07;;;3.90;;
24153;SDS011;12312;53.362;-1.518;2023-04-03T16:27:56;14.30;;;3.80;;
24153;SDS011;12312;53.362;-1.518;2023-04-03T16:30:41;8.07;;;3.83;;
24153;SDS011;12312;53.362;-1.518;2023-04-03T16:33:25;8.85;;;3.35;;
24153;SDS011;12312;53.362;-1.518;2023-04-03T16:36:09;7.97;;;2.90;;
24153;SDS011;12312;53.362;-1.518;2023-04-03T16:38:54;6.95;;;3.55;;
24153;SDS011;12312;53.362;-1.518;2023-04-03T16:41:38;8.05;;;4.05;;
24153;SDS011;12312;53.362;-1.518;2023-04-03T16:44:22;10.23;;;4.32;;
24153;SDS011;12312;53.362;-1.518;2023-04-03T16:47:06;7.40;;;3.97;;
24153;SDS011;12312;53.362;-1.518;2023-04-03T16:49:51;14.60;;;4.03;;
24153;SDS011;12312;53.362;-1.518;2023-04-03T16:52:35;6.65;;;3.40;;
24153;SDS011;12312;53.362;-1.518;2023-04-03T16:55:19;10.52;;;4.15;;
24153;SDS011;12312;53.362;-1.518;2023-04-03T16:58:04;7.18;;;4.07;;
24153;SDS011;12312;53.362;-1.518;2023-04-03T17:00:48;10.52;;;3.72;;
24153;SDS011;12312;53.362;-1.518;2023-04-03T17:03:32;11.95;;;4.60;;
24153;SDS011;12312;53.362;-1.518;2023-04-03T17:06:17;8.68;;;4.30;;
24153;SDS011;12312;53.362;-1.518;2023-04-03T17:09:03;9.05;;;3.85;;
24153;SDS011;12312;53.362;-1.518;2023-04-03T17:11:47;8.60;;;4.32;;
24153;SDS011;12312;53.362;-1.518;2023-04-03T17:14:32;10.73;;;4.25;;
24153;SDS011;12312;53.362;-1.518;2023-04-03T17:17:17;9.25;;;4.10;;
24153;SDS011;12312;53.362;-1.518;2023-04-03T17:20:04;10.63;;;4.35;;
24153;SDS011;12312;53.362;-1.518;2023-04-03T17:22:49;12.67;;;5.50;;
24153;SDS011;12312;53.362;-1.518;2023-04-03T17:25:34;8.57;;;4.32;;
24153;SDS011;12312;53.362;-1.518;2023-04-03T17:28:18;8.95;;;3.78;;
24153;SDS011;12312;53.362;-1.518;2023-04-03T17:31:02;7.35;;;3.97;;
24153;SDS011;12312;53.362;-1.518;2023-04-03T17:33:46;7.40;;;4.05;;
24153;SDS011;12312;53.362;-1.518;2023-04-03T17:36:30;11.70;;;4.68;;
24153;SDS011;12312;53.362;-1.518;2023-04-03T17:39:16;12.98;;;4.68;;
24153;SDS011;12312;53.362;-1.518;2023-04-03T17:42:00;12.10;;;4.90;;
24153;SDS011;12312;53.362;-1.518;2023-04-03T17:44:44;10.30;;;4.65;;
24153;SDS011;12312;53.362;-1.518;2023-04-03T17:47:28;11.65;;;4.90;;
24153;SDS011;12312;53.362;-1.518;2023-04-03T17:50:12;8.38;;;4.25;;